createdAt,value
2019-01-15T00:03:41.866Z,90.40
2019-01-15T00:08:45.572Z,90.10
2019-01-15T00:13:48.983Z,90.40
2019-01-15T00:18:52.383Z,90.30
2019-01-15T00:23:55.784Z,86.60
2019-01-15T00:28:59.179Z,83.70
2019-01-15T00:34:02.936Z,86.00
2019-01-15T00:39:07.936Z,89.60
2019-01-15T00:44:11.351Z,88.20
2019-01-15T00:49:15.193Z,88.40
2019-01-15T00:54:18.588Z,89.70
2019-01-15T00:59:22.016Z,89.00
2019-01-15T01:04:25.483Z,88.60
2019-01-15T01:09:28.958Z,88.00
2019-01-15T01:14:32.774Z,88.00
2019-01-15T01:19:36.164Z,87.10
2019-01-15T01:24:39.908Z,87.00
2019-01-15T01:29:43.300Z,84.10
2019-01-15T01:34:46.705Z,82.00
2019-01-15T01:39:50.100Z,83.50
2019-01-15T01:44:53.494Z,84.20
2019-01-15T01:49:57.197Z,84.90
2019-01-15T01:55:00.593Z,86.00
2019-01-15T02:00:07.318Z,88.00
2019-01-15T02:05:10.697Z,87.90
2019-01-15T02:10:16.039Z,87.90
2019-01-15T02:15:21.061Z,87.90
2019-01-15T02:20:24.504Z,88.60
2019-01-15T02:25:27.924Z,89.10
2019-01-15T02:30:31.704Z,88.90
2019-01-15T02:35:35.158Z,90.10
2019-01-15T02:40:38.552Z,90.50
2019-01-15T02:45:42.233Z,90.70
2019-01-15T02:50:45.627Z,90.60
2019-01-15T02:55:49.041Z,90.20
2019-01-15T03:00:52.441Z,90.20
2019-01-15T03:05:56.140Z,90.00
2019-01-15T03:10:59.830Z,90.00
2019-01-15T03:16:03.227Z,90.30
2019-01-15T03:21:06.976Z,89.10
2019-01-15T03:26:10.369Z,87.00
2019-01-15T03:31:13.765Z,86.90
2019-01-15T03:36:17.226Z,89.40
2019-01-15T03:41:20.612Z,87.30
2019-01-15T03:46:24.008Z,88.40
2019-01-15T03:51:27.407Z,88.70
2019-01-15T03:56:30.865Z,88.50
2019-01-15T04:01:34.653Z,88.80
2019-01-15T04:06:38.044Z,88.00
2019-01-15T04:11:41.439Z,89.70
2019-01-15T04:16:44.845Z,89.00
2019-01-15T04:21:48.629Z,89.10
2019-01-15T04:26:52.293Z,88.20
2019-01-15T04:31:56.081Z,89.30
2019-01-15T04:36:59.809Z,89.10
2019-01-15T04:42:03.212Z,88.30
2019-01-15T04:47:06.922Z,87.80
2019-01-15T04:52:10.673Z,84.90
2019-01-15T04:57:14.350Z,85.20
2019-01-15T05:02:17.755Z,86.60
2019-01-15T05:07:21.153Z,86.10
2019-01-15T05:12:24.549Z,86.60
2019-01-15T05:17:27.953Z,85.80
2019-01-15T05:22:31.425Z,86.70
2019-01-15T05:27:35.215Z,87.40
2019-01-15T05:32:38.621Z,86.50
2019-01-15T05:37:42.092Z,87.10
2019-01-15T05:42:45.489Z,86.80
2019-01-15T05:47:49.665Z,86.60
2019-01-15T05:52:53.430Z,86.20
2019-01-15T05:57:57.163Z,86.80
2019-01-15T06:03:00.722Z,87.70
2019-01-15T06:08:04.679Z,88.00
2019-01-15T06:13:08.088Z,87.70
2019-01-15T06:18:11.821Z,87.00
2019-01-15T06:23:15.225Z,87.20
2019-01-15T06:28:18.641Z,86.90
2019-01-15T06:33:22.061Z,87.60
2019-01-15T06:38:25.793Z,86.40
2019-01-15T06:43:29.559Z,86.90
2019-01-15T06:48:32.953Z,86.00
2019-01-15T06:53:36.349Z,85.60
2019-01-15T06:58:40.111Z,83.80
2019-01-15T07:03:43.513Z,85.00
2019-01-15T07:08:46.926Z,85.90
2019-01-15T07:13:56.884Z,87.10
2019-01-15T07:18:55.382Z,89.10
2019-01-15T07:23:58.982Z,88.40
2019-01-15T07:29:03.158Z,88.00
2019-01-15T07:34:06.586Z,87.80
2019-01-15T07:39:10.390Z,87.70
2019-01-15T07:44:13.821Z,88.00
2019-01-15T07:49:17.217Z,88.00
2019-01-15T07:54:20.979Z,87.70
2019-01-15T07:59:24.703Z,88.30
2019-01-15T08:04:28.401Z,88.60
2019-01-15T08:09:31.809Z,89.10
2019-01-15T08:14:35.218Z,88.80
2019-01-15T08:19:38.637Z,89.00
2019-01-15T08:24:42.402Z,89.10
2019-01-15T08:29:45.806Z,87.50
2019-01-15T08:34:49.221Z,86.80
2019-01-15T08:39:52.942Z,85.70
2019-01-15T08:44:57.173Z,83.90
2019-01-15T08:50:00.746Z,83.00
2019-01-15T08:55:05.612Z,82.00
2019-01-15T09:00:14.129Z,81.50
2019-01-15T09:05:17.895Z,80.80
2019-01-15T09:10:21.365Z,81.30
2019-01-15T09:15:24.775Z,80.80
2019-01-15T09:20:28.251Z,79.20
2019-01-15T09:25:31.735Z,79.70
2019-01-15T09:30:35.132Z,79.80
2019-01-15T09:35:38.529Z,80.50
2019-01-15T09:40:41.931Z,79.70
2019-01-15T09:45:45.598Z,81.20
2019-01-15T09:50:49.022Z,81.40
2019-01-15T09:55:52.434Z,76.20
2019-01-15T10:00:55.839Z,74.60
2019-01-15T10:05:59.260Z,72.90
2019-01-15T10:11:02.670Z,64.10
2019-01-15T10:16:06.093Z,56.40
2019-01-15T10:21:09.521Z,54.20
2019-01-15T10:26:12.955Z,53.00
2019-01-15T10:31:37.842Z,53.20
2019-01-15T10:36:40.386Z,58.30
2019-01-15T10:41:43.793Z,58.10
2019-01-15T10:46:47.205Z,56.40
2019-01-15T10:51:50.930Z,57.70
2019-01-15T10:56:54.334Z,60.80
2019-01-15T11:01:57.746Z,54.90
2019-01-15T11:07:01.530Z,52.30
2019-01-15T11:12:04.933Z,48.50
2019-01-15T11:17:08.401Z,48.00
2019-01-15T11:22:12.157Z,48.20
2019-01-15T11:27:15.575Z,46.90
2019-01-15T11:32:18.970Z,46.60
2019-01-15T11:37:22.370Z,41.20
2019-01-15T11:42:25.774Z,39.80
2019-01-15T11:47:29.194Z,36.10
2019-01-15T11:52:32.635Z,35.70
2019-01-15T11:57:36.061Z,34.20
2019-01-15T12:02:39.670Z,33.50
2019-01-15T12:08:01.075Z,33.80
2019-01-15T12:13:11.837Z,32.20
2019-01-15T12:18:16.898Z,30.90
2019-01-15T12:23:28.072Z,32.40
2019-01-15T12:28:42.057Z,33.50
2019-01-15T12:33:56.165Z,34.40
2019-01-15T12:39:02.208Z,31.90
2019-01-15T12:44:23.507Z,30.90
2019-01-15T12:49:34.574Z,31.10
2019-01-15T12:54:39.938Z,34.40
2019-01-15T13:00:01.020Z,37.60
2019-01-15T13:05:10.551Z,35.50
2019-01-15T13:10:24.177Z,34.90
2019-01-15T13:15:41.130Z,34.30
2019-01-15T13:20:54.952Z,32.90
2019-01-15T13:26:02.970Z,33.30
2019-01-15T13:31:10.720Z,36.00
2019-01-15T13:36:27.717Z,39.90
2019-01-15T13:41:38.517Z,39.70
2019-01-15T13:46:43.893Z,40.10
2019-01-15T13:52:06.822Z,40.50
2019-01-15T13:57:15.187Z,41.80
2019-01-15T14:02:20.241Z,41.30
2019-01-15T14:07:34.205Z,41.60
2019-01-15T14:12:45.158Z,40.70
2019-01-15T14:17:59.131Z,38.90
2019-01-15T14:23:13.138Z,35.50
2019-01-15T14:28:19.667Z,38.50
2019-01-15T14:33:30.226Z,33.10
2019-01-15T14:38:39.030Z,33.10
2019-01-15T14:44:00.450Z,33.10
2019-01-15T14:49:22.183Z,32.30
2019-01-15T14:54:27.231Z,35.60
2019-01-15T14:59:41.902Z,36.70
2019-01-15T15:04:49.693Z,41.40
2019-01-15T15:10:07.046Z,44.80
2019-01-15T15:15:28.223Z,47.80
2019-01-15T15:20:36.208Z,51.70
2019-01-15T15:25:59.402Z,54.80
2019-01-15T15:31:04.443Z,56.00
2019-01-15T15:36:26.414Z,57.60
2019-01-15T15:41:31.461Z,58.10
2019-01-15T15:46:42.619Z,58.90
2019-01-15T15:52:05.861Z,59.20
2019-01-15T15:57:14.186Z,59.90
2019-01-15T16:02:25.205Z,59.80
2019-01-15T16:07:46.882Z,61.20
2019-01-15T16:13:08.270Z,61.80
2019-01-15T16:18:19.596Z,62.90
2019-01-15T16:23:27.992Z,62.70
2019-01-15T16:28:49.967Z,63.20
2019-01-15T16:34:01.442Z,63.30
2019-01-15T16:39:25.422Z,62.80
2019-01-15T16:44:46.890Z,64.20
2019-01-15T16:50:11.119Z,64.80
2019-01-15T16:55:24.782Z,65.10
2019-01-15T17:00:35.865Z,65.00
2019-01-15T17:05:40.909Z,65.30
2019-01-15T17:11:02.318Z,66.30
2019-01-15T17:16:23.357Z,66.70
2019-01-15T17:21:34.685Z,67.70
2019-01-15T17:26:40.045Z,68.20
2019-01-15T17:32:03.431Z,68.00
2019-01-15T17:37:24.886Z,68.60
2019-01-15T17:42:29.926Z,68.70
2019-01-15T17:47:41.125Z,69.50
2019-01-15T17:52:49.087Z,71.40
2019-01-15T17:58:10.306Z,72.20
2019-01-15T18:03:30.483Z,73.50
2019-01-15T18:08:47.613Z,71.90
2019-01-15T18:14:11.161Z,70.90
2019-01-15T18:19:22.368Z,72.20
2019-01-15T18:30:05.686Z,73.40
2019-01-15T18:35:26.299Z,73.80
2019-01-15T18:40:34.367Z,75.20
2019-01-15T18:45:39.426Z,74.70
2019-01-15T18:51:00.567Z,75.00
2019-01-15T18:56:08.457Z,74.60
2019-01-15T19:01:16.999Z,74.10
2019-01-15T19:06:27.672Z,75.10
2019-01-15T19:11:32.917Z,75.40
2019-01-15T19:16:53.020Z,76.30
2019-01-15T19:21:58.942Z,75.00
2019-01-15T19:27:05.069Z,74.10
2019-01-15T19:32:25.248Z,73.50
2019-01-15T19:37:31.295Z,71.40
2019-01-15T19:42:37.338Z,70.80
2019-01-15T19:47:46.319Z,73.20
2019-01-15T19:53:04.639Z,74.00
2019-01-15T19:58:10.636Z,73.40
2019-01-15T20:03:25.316Z,73.80
2019-01-15T20:08:34.321Z,75.10
2019-01-15T20:13:37.506Z,75.10
2019-01-15T20:18:58.686Z,74.60
2019-01-15T20:24:10.988Z,74.50
2019-01-15T20:29:32.819Z,73.60
2019-01-15T20:34:38.727Z,74.40
2019-01-15T20:39:44.774Z,75.10
2019-01-15T20:44:50.939Z,73.80
2019-01-15T20:50:06.248Z,74.50
2019-01-15T20:55:28.104Z,74.00
2019-01-15T21:00:31.325Z,75.00
2019-01-15T21:05:46.870Z,75.80
2019-01-15T21:10:56.149Z,75.30
2019-01-15T21:15:59.714Z,76.00
2019-01-15T21:21:15.202Z,74.30
2019-01-15T21:26:18.728Z,74.00
2019-01-15T21:31:27.928Z,74.90
2019-01-15T21:36:43.215Z,75.80
2019-01-15T21:41:49.153Z,75.70
2019-01-15T21:46:55.465Z,75.90
2019-01-15T21:52:01.834Z,76.30
2019-01-15T21:57:08.062Z,76.90
2019-01-15T22:02:20.555Z,76.20
2019-01-15T22:07:24.029Z,76.00
2019-01-15T22:12:27.219Z,75.90
2019-01-15T22:17:47.638Z,76.70
2019-01-15T22:23:05.938Z,75.50
2019-01-15T22:28:12.125Z,76.80
2019-01-15T22:33:33.686Z,76.90
2019-01-15T22:44:56.018Z,77.40
2019-01-15T22:50:15.845Z,76.50
2019-01-15T22:55:22.292Z,78.20
2019-01-15T23:00:48.817Z,78.80
2019-01-15T23:06:08.645Z,79.70
2019-01-15T23:11:11.830Z,80.10
2019-01-15T23:16:15.022Z,79.30
2019-01-15T23:21:34.833Z,80.50
2019-01-15T23:26:38.612Z,79.80
2019-01-15T23:31:41.767Z,81.40
2019-01-15T23:36:59.796Z,80.80
2019-01-15T23:42:19.505Z,81.70
2019-01-15T23:47:22.689Z,81.90
2019-01-15T23:52:38.030Z,81.30
2019-01-15T23:57:41.635Z,81.80
